BKB6 CYLW-CYKA
Flight info
| Callsign | BKB6 |
|---|---|
| Flight time | 0h 18m |
| Altitude | 14000 |
| Route | ENDBY3 ENDBY DCT VOMAD |
| Aircraft | RJ1H/M-SDFGIRWY/LB1 |
Departure
| Time | 2026-04-27 12:02 |
|---|---|
| Airport | Kelowna International Airport (CYLW) |
Arrival
| Time | 2026-04-27 12:21 |
|---|---|
| Airport | Kamloops John Moose Fulton Field Regional Airport (CYKA) |
| Time | Latitude | Longitude | Altitude | Speed | Heading |
|---|---|---|---|---|---|
| 2026-04-27 11:36 | 49.95281 | -119.38026 | 1421 ft | 0 kts | 288° |
| 2026-04-27 11:57 | 49.95280 | -119.38023 | 1419 ft | 2 kts | 288° |
| 2026-04-27 11:57 | 49.95276 | -119.37984 | 1419 ft | 4 kts | 266° |
| 2026-04-27 11:57 | 49.95286 | -119.37955 | 1423 ft | 4 kts | 193° |
| 2026-04-27 11:58 | 49.95296 | -119.37955 | 1421 ft | 1 kts | 174° |
| 2026-04-27 11:58 | 49.95297 | -119.37955 | 1420 ft | 0 kts | 174° |
| 2026-04-27 11:59 | 49.95295 | -119.37955 | 1421 ft | 2 kts | 174° |
| 2026-04-27 12:00 | 49.95259 | -119.37950 | 1424 ft | 9 kts | 176° |
| 2026-04-27 12:00 | 49.95182 | -119.37942 | 1419 ft | 12 kts | 175° |
| 2026-04-27 12:00 | 49.95137 | -119.37862 | 1422 ft | 10 kts | 133° |
| 2026-04-27 12:00 | 49.95069 | -119.37844 | 1420 ft | 11 kts | 175° |
| 2026-04-27 12:01 | 49.94990 | -119.37834 | 1420 ft | 12 kts | 175° |
| 2026-04-27 12:01 | 49.94904 | -119.37822 | 1420 ft | 13 kts | 174° |
| 2026-04-27 12:01 | 49.94813 | -119.37799 | 1420 ft | 14 kts | 154° |
| 2026-04-27 12:01 | 49.94750 | -119.37703 | 1421 ft | 10 kts | 126° |
| 2026-04-27 12:02 | 49.94778 | -119.37662 | 1421 ft | 9 kts | 353° |
| 2026-04-27 12:02 | 49.95095 | -119.37707 | 1421 ft | 87 kts | 355° |
| 2026-04-27 12:02 | 49.95935 | -119.37823 | 1480 ft | 146 kts | 358° |
| 2026-04-27 12:02 | 49.96970 | -119.37951 | 2253 ft | 148 kts | 356° |
| 2026-04-27 12:03 | 49.97973 | -119.38105 | 3064 ft | 148 kts | 353° |
| 2026-04-27 12:03 | 49.99043 | -119.38325 | 3305 ft | 166 kts | 352° |
| 2026-04-27 12:03 | 50.00246 | -119.38575 | 3562 ft | 183 kts | 352° |
| 2026-04-27 12:03 | 50.01558 | -119.39072 | 3907 ft | 206 kts | 343° |
| 2026-04-27 12:04 | 50.02974 | -119.39765 | 4367 ft | 221 kts | 342° |
| 2026-04-27 12:04 | 50.04480 | -119.40559 | 4783 ft | 236 kts | 341° |
| 2026-04-27 12:04 | 50.06074 | -119.41423 | 5363 ft | 249 kts | 341° |
| 2026-04-27 12:04 | 50.07721 | -119.42304 | 6311 ft | 250 kts | 341° |
| 2026-04-27 12:05 | 50.09360 | -119.43179 | 7232 ft | 247 kts | 341° |
| 2026-04-27 12:05 | 50.11000 | -119.44057 | 8068 ft | 252 kts | 341° |
| 2026-04-27 12:05 | 50.12672 | -119.44944 | 8976 ft | 252 kts | 341° |
| 2026-04-27 12:05 | 50.14323 | -119.45678 | 9887 ft | 249 kts | 354° |
| 2026-04-27 12:06 | 50.16004 | -119.45071 | 10757 ft | 257 kts | 30° |
| 2026-04-27 12:06 | 50.17383 | -119.43178 | 11314 ft | 278 kts | 42° |
| 2026-04-27 12:06 | 50.18803 | -119.40980 | 11741 ft | 297 kts | 41° |
| 2026-04-27 12:06 | 50.20347 | -119.38677 | 11945 ft | 310 kts | 40° |
| 2026-04-27 12:07 | 50.21917 | -119.36440 | 11977 ft | 305 kts | 38° |
| 2026-04-27 12:07 | 50.23538 | -119.34292 | 11994 ft | 305 kts | 34° |
| 2026-04-27 12:07 | 50.25431 | -119.32951 | 11995 ft | 299 kts | 6° |
| 2026-04-27 12:07 | 50.27465 | -119.33315 | 11994 ft | 297 kts | 337° |
| 2026-04-27 12:08 | 50.29124 | -119.35202 | 12020 ft | 299 kts | 313° |
| 2026-04-27 12:08 | 50.30461 | -119.37702 | 12014 ft | 300 kts | 311° |
| 2026-04-27 12:08 | 50.31799 | -119.40191 | 11998 ft | 298 kts | 311° |
| 2026-04-27 12:08 | 50.33138 | -119.42673 | 11981 ft | 299 kts | 312° |
| 2026-04-27 12:09 | 50.34473 | -119.45114 | 11974 ft | 299 kts | 312° |
| 2026-04-27 12:09 | 50.35852 | -119.47551 | 11973 ft | 298 kts | 313° |
| 2026-04-27 12:09 | 50.37253 | -119.49952 | 11979 ft | 299 kts | 314° |
| 2026-04-27 12:09 | 50.38674 | -119.52330 | 11974 ft | 299 kts | 314° |
| 2026-04-27 12:10 | 50.40089 | -119.54695 | 11987 ft | 292 kts | 315° |
| 2026-04-27 12:10 | 50.41440 | -119.56937 | 11989 ft | 275 kts | 315° |
| 2026-04-27 12:10 | 50.42724 | -119.59046 | 11938 ft | 261 kts | 315° |
| 2026-04-27 12:10 | 50.43958 | -119.61072 | 11726 ft | 254 kts | 315° |
| 2026-04-27 12:11 | 50.45169 | -119.63087 | 11390 ft | 253 kts | 315° |
| 2026-04-27 12:11 | 50.46377 | -119.65100 | 11098 ft | 253 kts | 315° |
| 2026-04-27 12:11 | 50.47582 | -119.67104 | 10797 ft | 252 kts | 315° |
| 2026-04-27 12:11 | 50.48787 | -119.69098 | 10472 ft | 251 kts | 315° |
| 2026-04-27 12:12 | 50.49994 | -119.71081 | 10168 ft | 251 kts | 314° |
| 2026-04-27 12:12 | 50.51187 | -119.73074 | 9872 ft | 250 kts | 314° |
| 2026-04-27 12:12 | 50.52372 | -119.75060 | 9559 ft | 248 kts | 314° |
| 2026-04-27 12:12 | 50.53542 | -119.77030 | 9307 ft | 245 kts | 314° |
| 2026-04-27 12:13 | 50.54702 | -119.78969 | 9034 ft | 242 kts | 315° |
| 2026-04-27 12:13 | 50.55852 | -119.80886 | 8760 ft | 240 kts | 314° |
| 2026-04-27 12:13 | 50.56993 | -119.82793 | 8477 ft | 238 kts | 315° |
| 2026-04-27 12:13 | 50.58109 | -119.84697 | 8209 ft | 236 kts | 310° |
| 2026-04-27 12:14 | 50.58831 | -119.86978 | 7955 ft | 237 kts | 292° |
| 2026-04-27 12:14 | 50.59413 | -119.89402 | 7695 ft | 236 kts | 294° |
| 2026-04-27 12:14 | 50.60006 | -119.91800 | 7455 ft | 235 kts | 293° |
| 2026-04-27 12:14 | 50.60586 | -119.94205 | 7199 ft | 234 kts | 293° |
| 2026-04-27 12:15 | 50.61153 | -119.96609 | 6964 ft | 234 kts | 292° |
| 2026-04-27 12:15 | 50.61715 | -119.99016 | 6731 ft | 234 kts | 292° |
| 2026-04-27 12:15 | 50.62256 | -120.01430 | 6497 ft | 234 kts | 290° |
| 2026-04-27 12:15 | 50.62759 | -120.03871 | 6252 ft | 234 kts | 289° |
| 2026-04-27 12:16 | 50.63232 | -120.06319 | 5983 ft | 234 kts | 289° |
| 2026-04-27 12:16 | 50.63699 | -120.08770 | 5733 ft | 233 kts | 289° |
| 2026-04-27 12:16 | 50.64152 | -120.11183 | 5488 ft | 232 kts | 288° |
| 2026-04-27 12:16 | 50.64607 | -120.13646 | 5255 ft | 230 kts | 288° |
| 2026-04-27 12:17 | 50.65040 | -120.16034 | 5016 ft | 229 kts | 288° |
| 2026-04-27 12:17 | 50.65479 | -120.18430 | 4872 ft | 225 kts | 288° |
| 2026-04-27 12:17 | 50.65902 | -120.20773 | 4759 ft | 221 kts | 288° |
| 2026-04-27 12:17 | 50.66332 | -120.23101 | 4562 ft | 221 kts | 288° |
| 2026-04-27 12:18 | 50.66783 | -120.25413 | 4204 ft | 218 kts | 290° |
| 2026-04-27 12:18 | 50.67260 | -120.27572 | 3842 ft | 201 kts | 291° |
| 2026-04-27 12:18 | 50.67743 | -120.29617 | 3295 ft | 195 kts | 291° |
| 2026-04-27 12:18 | 50.68218 | -120.31571 | 2977 ft | 186 kts | 291° |
| 2026-04-27 12:19 | 50.68563 | -120.33424 | 2709 ft | 166 kts | 284° |
| 2026-04-27 12:19 | 50.68815 | -120.35115 | 2349 ft | 151 kts | 285° |
| 2026-04-27 12:19 | 50.69071 | -120.36675 | 2136 ft | 142 kts | 285° |
| 2026-04-27 12:19 | 50.69289 | -120.38141 | 1945 ft | 132 kts | 284° |
| 2026-04-27 12:20 | 50.69487 | -120.39513 | 1692 ft | 128 kts | 284° |
| 2026-04-27 12:20 | 50.69690 | -120.40841 | 1489 ft | 123 kts | 283° |
| 2026-04-27 12:20 | 50.69892 | -120.42149 | 1302 ft | 122 kts | 284° |
| 2026-04-27 12:20 | 50.70087 | -120.43431 | 1153 ft | 117 kts | 283° |
| 2026-04-27 12:21 | 50.70261 | -120.44571 | 1135 ft | 94 kts | 283° |
| 2026-04-27 12:21 | 50.70375 | -120.45307 | 1139 ft | 37 kts | 283° |
| 2026-04-27 12:21 | 50.70415 | -120.45410 | 1137 ft | 7 kts | 29° |
| 2026-04-27 12:21 | 50.70449 | -120.45342 | 1135 ft | 8 kts | 49° |
| 2026-04-27 12:22 | 50.70484 | -120.45262 | 1138 ft | 10 kts | 57° |
| 2026-04-27 12:22 | 50.70522 | -120.45130 | 1137 ft | 16 kts | 92° |
| 2026-04-27 12:22 | 50.70493 | -120.44928 | 1137 ft | 21 kts | 103° |
| 2026-04-27 12:22 | 50.70458 | -120.44700 | 1135 ft | 22 kts | 103° |
| 2026-04-27 12:23 | 50.70424 | -120.44461 | 1138 ft | 22 kts | 103° |
| 2026-04-27 12:23 | 50.70385 | -120.44236 | 1136 ft | 21 kts | 87° |
| 2026-04-27 12:23 | 50.70442 | -120.44053 | 1138 ft | 11 kts | 45° |
| 2026-04-27 12:23 | 50.70491 | -120.44048 | 1136 ft | 5 kts | 1° |
| 2026-04-27 12:24 | 50.70502 | -120.44044 | 1137 ft | 0 kts | 18° |